sensor_id;sensor_type;location;lat;lon;timestamp;temperature;humidity
782;DHT22;374;52.568;13.402;2023-12-20T00:01:48;8.70;99.90
782;DHT22;374;52.568;13.402;2023-12-20T00:04:14;8.70;99.90
782;DHT22;374;52.568;13.402;2023-12-20T00:06:40;8.70;99.90
782;DHT22;374;52.568;13.402;2023-12-20T00:09:05;8.70;99.90
782;DHT22;374;52.568;13.402;2023-12-20T00:11:31;8.70;99.90
782;DHT22;374;52.568;13.402;2023-12-20T00:13:56;8.70;99.90
782;DHT22;374;52.568;13.402;2023-12-20T00:16:21;8.70;99.90
782;DHT22;374;52.568;13.402;2023-12-20T00:18:47;8.70;99.90
782;DHT22;374;52.568;13.402;2023-12-20T00:21:12;8.70;99.90
782;DHT22;374;52.568;13.402;2023-12-20T00:23:38;8.70;99.90
782;DHT22;374;52.568;13.402;2023-12-20T00:26:03;8.70;99.90
782;DHT22;374;52.568;13.402;2023-12-20T00:28:29;8.70;99.90
782;DHT22;374;52.568;13.402;2023-12-20T00:30:55;8.70;99.90
782;DHT22;374;52.568;13.402;2023-12-20T00:33:20;8.70;99.90
782;DHT22;374;52.568;13.402;2023-12-20T00:35:46;8.70;99.90
782;DHT22;374;52.568;13.402;2023-12-20T00:38:11;8.70;99.90
782;DHT22;374;52.568;13.402;2023-12-20T00:40:37;8.70;99.90
782;DHT22;374;52.568;13.402;2023-12-20T00:43:02;8.70;99.90
782;DHT22;374;52.568;13.402;2023-12-20T00:45:28;8.70;99.90
782;DHT22;374;52.568;13.402;2023-12-20T00:47:54;8.70;99.90
782;DHT22;374;52.568;13.402;2023-12-20T00:50:19;8.70;99.90
782;DHT22;374;52.568;13.402;2023-12-20T00:52:47;8.70;99.90
782;DHT22;374;52.568;13.402;2023-12-20T00:55:12;8.60;99.90
782;DHT22;374;52.568;13.402;2023-12-20T00:57:38;8.70;99.90
782;DHT22;374;52.568;13.402;2023-12-20T01:00:04;8.70;99.90
782;DHT22;374;52.568;13.402;2023-12-20T01:02:29;8.70;99.90
782;DHT22;374;52.568;13.402;2023-12-20T01:04:55;8.70;99.90
782;DHT22;374;52.568;13.402;2023-12-20T01:07:20;8.70;99.90
782;DHT22;374;52.568;13.402;2023-12-20T01:09:46;8.70;99.90
782;DHT22;374;52.568;13.402;2023-12-20T01:12:12;8.70;99.90
782;DHT22;374;52.568;13.402;2023-12-20T01:14:40;8.70;99.90
782;DHT22;374;52.568;13.402;2023-12-20T01:17:05;8.70;99.90
782;DHT22;374;52.568;13.402;2023-12-20T01:19:31;8.70;99.90
782;DHT22;374;52.568;13.402;2023-12-20T01:21:56;8.70;99.90
782;DHT22;374;52.568;13.402;2023-12-20T01:24:22;8.70;99.90
782;DHT22;374;52.568;13.402;2023-12-20T01:26:47;8.80;99.90
782;DHT22;374;52.568;13.402;2023-12-20T01:29:13;8.70;99.90
782;DHT22;374;52.568;13.402;2023-12-20T01:31:39;8.70;99.90
782;DHT22;374;52.568;13.402;2023-12-20T01:34:05;8.70;99.90
782;DHT22;374;52.568;13.402;2023-12-20T01:36:31;8.70;99.90
782;DHT22;374;52.568;13.402;2023-12-20T01:38:56;8.70;99.90
782;DHT22;374;52.568;13.402;2023-12-20T01:41:22;8.70;99.90
782;DHT22;374;52.568;13.402;2023-12-20T01:43:47;8.70;99.90
782;DHT22;374;52.568;13.402;2023-12-20T01:46:13;8.70;99.90
782;DHT22;374;52.568;13.402;2023-12-20T01:48:40;8.70;99.90
782;DHT22;374;52.568;13.402;2023-12-20T01:51:05;8.80;99.90
782;DHT22;374;52.568;13.402;2023-12-20T01:53:31;8.70;99.90
782;DHT22;374;52.568;13.402;2023-12-20T01:55:58;8.70;99.90
782;DHT22;374;52.568;13.402;2023-12-20T01:58:24;8.70;99.90
782;DHT22;374;52.568;13.402;2023-12-20T02:00:50;8.70;99.90
782;DHT22;374;52.568;13.402;2023-12-20T02:03:16;8.70;99.90
782;DHT22;374;52.568;13.402;2023-12-20T02:05:44;8.70;99.90
782;DHT22;374;52.568;13.402;2023-12-20T02:08:09;8.70;99.90
782;DHT22;374;52.568;13.402;2023-12-20T02:10:35;8.70;99.90
782;DHT22;374;52.568;13.402;2023-12-20T02:13:00;8.70;99.90
782;DHT22;374;52.568;13.402;2023-12-20T02:15:26;8.70;99.90
782;DHT22;374;52.568;13.402;2023-12-20T02:17:51;8.70;99.90
782;DHT22;374;52.568;13.402;2023-12-20T02:20:17;8.70;99.90
782;DHT22;374;52.568;13.402;2023-12-20T02:22:43;8.70;99.90
782;DHT22;374;52.568;13.402;2023-12-20T02:25:11;8.70;99.90
782;DHT22;374;52.568;13.402;2023-12-20T02:27:36;8.70;99.90
782;DHT22;374;52.568;13.402;2023-12-20T02:30:02;8.70;99.90
782;DHT22;374;52.568;13.402;2023-12-20T02:32:28;8.70;99.90
782;DHT22;374;52.568;13.402;2023-12-20T02:34:55;8.70;99.90
782;DHT22;374;52.568;13.402;2023-12-20T02:37:20;8.70;99.90
782;DHT22;374;52.568;13.402;2023-12-20T02:39:46;8.80;99.90
782;DHT22;374;52.568;13.402;2023-12-20T02:42:14;8.70;99.90
782;DHT22;374;52.568;13.402;2023-12-20T02:44:39;8.70;99.90
782;DHT22;374;52.568;13.402;2023-12-20T02:47:05;8.70;99.90
782;DHT22;374;52.568;13.402;2023-12-20T02:49:30;8.70;99.90
782;DHT22;374;52.568;13.402;2023-12-20T02:51:56;8.70;99.90
782;DHT22;374;52.568;13.402;2023-12-20T02:54:21;8.60;99.90
782;DHT22;374;52.568;13.402;2023-12-20T02:56:47;8.70;99.90
782;DHT22;374;52.568;13.402;2023-12-20T02:59:13;8.70;99.90
782;DHT22;374;52.568;13.402;2023-12-20T03:01:45;8.70;99.90
782;DHT22;374;52.568;13.402;2023-12-20T03:04:11;8.70;99.90
782;DHT22;374;52.568;13.402;2023-12-20T03:06:38;8.70;99.90
782;DHT22;374;52.568;13.402;2023-12-20T03:09:03;8.70;99.90
782;DHT22;374;52.568;13.402;2023-12-20T03:11:29;8.70;99.90
782;DHT22;374;52.568;13.402;2023-12-20T03:13:55;8.60;99.90
782;DHT22;374;52.568;13.402;2023-12-20T03:16:21;8.60;99.90
782;DHT22;374;52.568;13.402;2023-12-20T03:18:47;8.60;99.90
782;DHT22;374;52.568;13.402;2023-12-20T03:21:12;8.70;99.90
782;DHT22;374;52.568;13.402;2023-12-20T03:23:38;8.70;99.90
782;DHT22;374;52.568;13.402;2023-12-20T03:26:05;8.70;99.90
782;DHT22;374;52.568;13.402;2023-12-20T03:28:31;8.70;99.90
782;DHT22;374;52.568;13.402;2023-12-20T03:30:57;8.60;99.90
782;DHT22;374;52.568;13.402;2023-12-20T03:33:22;8.60;99.90
782;DHT22;374;52.568;13.402;2023-12-20T03:35:48;8.60;99.90
782;DHT22;374;52.568;13.402;2023-12-20T03:38:13;8.60;99.90
782;DHT22;374;52.568;13.402;2023-12-20T03:40:39;8.60;99.90
782;DHT22;374;52.568;13.402;2023-12-20T03:43:04;8.60;99.90
782;DHT22;374;52.568;13.402;2023-12-20T03:45:30;8.60;99.90
782;DHT22;374;52.568;13.402;2023-12-20T03:47:55;8.60;99.90
782;DHT22;374;52.568;13.402;2023-12-20T03:50:22;8.50;99.90
782;DHT22;374;52.568;13.402;2023-12-20T03:52:48;8.60;99.90
782;DHT22;374;52.568;13.402;2023-12-20T03:55:13;8.60;99.90
782;DHT22;374;52.568;13.402;2023-12-20T03:57:39;8.60;99.90
782;DHT22;374;52.568;13.402;2023-12-20T04:00:09;8.50;99.90
782;DHT22;374;52.568;13.402;2023-12-20T04:02:41;8.60;99.90
782;DHT22;374;52.568;13.402;2023-12-20T04:05:07;8.50;99.90
782;DHT22;374;52.568;13.402;2023-12-20T04:07:33;8.60;99.90
782;DHT22;374;52.568;13.402;2023-12-20T04:09:59;8.60;99.90
782;DHT22;374;52.568;13.402;2023-12-20T04:12:25;8.60;99.90
782;DHT22;374;52.568;13.402;2023-12-20T04:14:51;8.60;99.90
782;DHT22;374;52.568;13.402;2023-12-20T04:17:17;8.50;99.90
782;DHT22;374;52.568;13.402;2023-12-20T04:19:43;8.60;99.90
782;DHT22;374;52.568;13.402;2023-12-20T04:22:08;8.60;99.90
782;DHT22;374;52.568;13.402;2023-12-20T04:24:34;8.60;99.90
782;DHT22;374;52.568;13.402;2023-12-20T04:27:00;8.60;99.90
782;DHT22;374;52.568;13.402;2023-12-20T04:29:25;8.60;99.90
782;DHT22;374;52.568;13.402;2023-12-20T04:31:54;8.50;99.90
782;DHT22;374;52.568;13.402;2023-12-20T04:34:19;8.50;99.90
782;DHT22;374;52.568;13.402;2023-12-20T04:36:45;8.50;99.90
782;DHT22;374;52.568;13.402;2023-12-20T04:39:12;8.50;99.90
782;DHT22;374;52.568;13.402;2023-12-20T04:41:38;8.50;99.90
782;DHT22;374;52.568;13.402;2023-12-20T04:44:03;8.50;99.90
782;DHT22;374;52.568;13.402;2023-12-20T04:46:29;8.40;99.90
782;DHT22;374;52.568;13.402;2023-12-20T04:48:54;8.50;99.90
782;DHT22;374;52.568;13.402;2023-12-20T04:51:20;8.40;99.90
782;DHT22;374;52.568;13.402;2023-12-20T04:53:46;8.50;99.90
782;DHT22;374;52.568;13.402;2023-12-20T04:56:11;8.50;99.90
782;DHT22;374;52.568;13.402;2023-12-20T04:58:37;8.40;99.90
782;DHT22;374;52.568;13.402;2023-12-20T05:01:03;8.50;99.90
782;DHT22;374;52.568;13.402;2023-12-20T05:03:30;8.40;99.90
782;DHT22;374;52.568;13.402;2023-12-20T05:05:55;8.40;99.90
782;DHT22;374;52.568;13.402;2023-12-20T05:08:20;8.50;99.90
782;DHT22;374;52.568;13.402;2023-12-20T05:10:46;8.50;99.90
782;DHT22;374;52.568;13.402;2023-12-20T05:13:11;8.40;99.90
782;DHT22;374;52.568;13.402;2023-12-20T05:15:37;8.40;99.90
782;DHT22;374;52.568;13.402;2023-12-20T05:18:02;8.50;99.90
782;DHT22;374;52.568;13.402;2023-12-20T05:20:28;8.50;99.90
782;DHT22;374;52.568;13.402;2023-12-20T05:22:53;8.40;99.90
782;DHT22;374;52.568;13.402;2023-12-20T05:25:19;8.50;99.90
782;DHT22;374;52.568;13.402;2023-12-20T05:27:44;8.50;99.90
782;DHT22;374;52.568;13.402;2023-12-20T05:30:10;8.50;99.90
782;DHT22;374;52.568;13.402;2023-12-20T05:32:36;8.40;99.90
782;DHT22;374;52.568;13.402;2023-12-20T05:35:02;8.40;99.90
782;DHT22;374;52.568;13.402;2023-12-20T05:37:28;8.40;99.90
782;DHT22;374;52.568;13.402;2023-12-20T05:39:54;8.40;99.90
782;DHT22;374;52.568;13.402;2023-12-20T05:42:19;8.30;99.90
782;DHT22;374;52.568;13.402;2023-12-20T05:44:45;8.30;99.90
782;DHT22;374;52.568;13.402;2023-12-20T05:47:10;8.40;99.90
782;DHT22;374;52.568;13.402;2023-12-20T05:49:36;8.40;99.90
782;DHT22;374;52.568;13.402;2023-12-20T05:52:01;8.40;99.90
782;DHT22;374;52.568;13.402;2023-12-20T05:54:27;8.40;99.90
782;DHT22;374;52.568;13.402;2023-12-20T05:56:52;8.30;99.90
782;DHT22;374;52.568;13.402;2023-12-20T05:59:18;8.40;99.90
782;DHT22;374;52.568;13.402;2023-12-20T06:01:43;8.30;99.90
782;DHT22;374;52.568;13.402;2023-12-20T06:04:09;8.30;99.90
782;DHT22;374;52.568;13.402;2023-12-20T06:06:34;8.30;99.90
782;DHT22;374;52.568;13.402;2023-12-20T06:09:00;8.30;99.90
782;DHT22;374;52.568;13.402;2023-12-20T06:11:26;8.30;99.90
782;DHT22;374;52.568;13.402;2023-12-20T06:13:52;8.20;99.90
782;DHT22;374;52.568;13.402;2023-12-20T06:16:20;8.30;99.90
782;DHT22;374;52.568;13.402;2023-12-20T06:18:45;8.30;99.90
782;DHT22;374;52.568;13.402;2023-12-20T06:21:11;8.30;99.90
782;DHT22;374;52.568;13.402;2023-12-20T06:23:38;8.20;99.90
782;DHT22;374;52.568;13.402;2023-12-20T06:26:04;8.30;99.90
782;DHT22;374;52.568;13.402;2023-12-20T06:28:29;8.20;99.90
782;DHT22;374;52.568;13.402;2023-12-20T06:30:55;8.20;99.90
782;DHT22;374;52.568;13.402;2023-12-20T06:33:22;8.20;99.90
782;DHT22;374;52.568;13.402;2023-12-20T06:35:48;8.20;99.90
782;DHT22;374;52.568;13.402;2023-12-20T06:38:13;8.20;99.90
782;DHT22;374;52.568;13.402;2023-12-20T06:40:39;8.20;99.90
782;DHT22;374;52.568;13.402;2023-12-20T06:43:04;8.20;99.90
782;DHT22;374;52.568;13.402;2023-12-20T06:45:32;8.20;99.90
782;DHT22;374;52.568;13.402;2023-12-20T06:47:57;8.20;99.90
782;DHT22;374;52.568;13.402;2023-12-20T06:50:26;8.20;99.90
782;DHT22;374;52.568;13.402;2023-12-20T06:52:52;8.20;99.90
782;DHT22;374;52.568;13.402;2023-12-20T06:55:18;8.20;99.90
782;DHT22;374;52.568;13.402;2023-12-20T06:57:43;8.20;99.90
782;DHT22;374;52.568;13.402;2023-12-20T07:00:11;8.20;99.90
782;DHT22;374;52.568;13.402;2023-12-20T07:02:37;8.20;99.90
782;DHT22;374;52.568;13.402;2023-12-20T07:05:02;8.20;99.90
782;DHT22;374;52.568;13.402;2023-12-20T07:07:28;8.20;99.90
782;DHT22;374;52.568;13.402;2023-12-20T07:09:53;8.10;99.90
782;DHT22;374;52.568;13.402;2023-12-20T07:12:19;8.00;99.90
782;DHT22;374;52.568;13.402;2023-12-20T07:14:47;8.10;99.90
782;DHT22;374;52.568;13.402;2023-12-20T07:17:13;8.00;99.90
782;DHT22;374;52.568;13.402;2023-12-20T07:19:40;8.10;99.90
782;DHT22;374;52.568;13.402;2023-12-20T07:22:06;8.10;99.90
782;DHT22;374;52.568;13.402;2023-12-20T07:24:32;8.10;99.90
782;DHT22;374;52.568;13.402;2023-12-20T07:27:00;8.10;99.90
782;DHT22;374;52.568;13.402;2023-12-20T07:29:25;8.10;99.90
782;DHT22;374;52.568;13.402;2023-12-20T07:31:51;8.10;99.90
782;DHT22;374;52.568;13.402;2023-12-20T07:34:17;8.10;99.90
782;DHT22;374;52.568;13.402;2023-12-20T07:36:43;8.10;99.90
782;DHT22;374;52.568;13.402;2023-12-20T07:39:08;8.10;99.90
782;DHT22;374;52.568;13.402;2023-12-20T07:41:34;8.10;99.90
782;DHT22;374;52.568;13.402;2023-12-20T07:43:59;8.00;99.90
782;DHT22;374;52.568;13.402;2023-12-20T07:46:25;8.10;99.90
782;DHT22;374;52.568;13.402;2023-12-20T07:48:50;8.10;99.90
782;DHT22;374;52.568;13.402;2023-12-20T07:51:16;8.10;99.90
782;DHT22;374;52.568;13.402;2023-12-20T07:53:42;8.10;99.90
782;DHT22;374;52.568;13.402;2023-12-20T07:56:15;8.00;99.90
782;DHT22;374;52.568;13.402;2023-12-20T07:58:41;8.10;99.90
782;DHT22;374;52.568;13.402;2023-12-20T08:01:06;8.10;99.90
782;DHT22;374;52.568;13.402;2023-12-20T08:03:32;8.10;99.90
782;DHT22;374;52.568;13.402;2023-12-20T08:05:57;8.00;99.90
782;DHT22;374;52.568;13.402;2023-12-20T08:08:25;8.00;99.90
782;DHT22;374;52.568;13.402;2023-12-20T08:10:50;8.00;99.90
782;DHT22;374;52.568;13.402;2023-12-20T08:13:15;8.00;99.90
782;DHT22;374;52.568;13.402;2023-12-20T08:15:41;8.10;99.90
782;DHT22;374;52.568;13.402;2023-12-20T08:18:06;8.00;99.90
782;DHT22;374;52.568;13.402;2023-12-20T08:20:32;8.00;99.90
782;DHT22;374;52.568;13.402;2023-12-20T08:22:57;8.00;99.90
782;DHT22;374;52.568;13.402;2023-12-20T08:25:23;8.00;99.90
782;DHT22;374;52.568;13.402;2023-12-20T08:27:48;8.00;99.90
782;DHT22;374;52.568;13.402;2023-12-20T08:30:14;8.00;99.90
782;DHT22;374;52.568;13.402;2023-12-20T08:32:39;8.00;99.90
782;DHT22;374;52.568;13.402;2023-12-20T08:35:05;8.00;99.90
782;DHT22;374;52.568;13.402;2023-12-20T08:37:31;8.00;99.90
782;DHT22;374;52.568;13.402;2023-12-20T08:39:57;7.90;99.90
782;DHT22;374;52.568;13.402;2023-12-20T08:42:22;8.00;99.90
782;DHT22;374;52.568;13.402;2023-12-20T08:44:49;7.90;99.90
782;DHT22;374;52.568;13.402;2023-12-20T08:47:15;8.00;99.90
782;DHT22;374;52.568;13.402;2023-12-20T08:49:41;7.90;99.90
782;DHT22;374;52.568;13.402;2023-12-20T08:52:06;7.90;99.90
782;DHT22;374;52.568;13.402;2023-12-20T08:54:32;7.90;99.90
782;DHT22;374;52.568;13.402;2023-12-20T08:56:57;7.90;99.90
782;DHT22;374;52.568;13.402;2023-12-20T08:59:23;7.90;99.90
782;DHT22;374;52.568;13.402;2023-12-20T09:01:48;7.90;99.90
782;DHT22;374;52.568;13.402;2023-12-20T09:04:22;7.80;99.90
782;DHT22;374;52.568;13.402;2023-12-20T09:06:50;7.90;99.90
782;DHT22;374;52.568;13.402;2023-12-20T09:09:16;7.90;99.90
782;DHT22;374;52.568;13.402;2023-12-20T09:11:41;7.80;99.90
782;DHT22;374;52.568;13.402;2023-12-20T09:14:07;7.90;99.90
782;DHT22;374;52.568;13.402;2023-12-20T09:16:33;7.90;99.90
782;DHT22;374;52.568;13.402;2023-12-20T09:18:58;7.90;99.90
782;DHT22;374;52.568;13.402;2023-12-20T09:21:24;7.90;99.90
782;DHT22;374;52.568;13.402;2023-12-20T09:23:49;7.90;99.90
782;DHT22;374;52.568;13.402;2023-12-20T09:26:15;7.90;99.90
782;DHT22;374;52.568;13.402;2023-12-20T09:28:40;7.90;99.90
782;DHT22;374;52.568;13.402;2023-12-20T09:31:06;7.90;99.90
782;DHT22;374;52.568;13.402;2023-12-20T09:33:32;7.90;99.90
782;DHT22;374;52.568;13.402;2023-12-20T09:35:58;7.80;99.90
782;DHT22;374;52.568;13.402;2023-12-20T09:38:24;7.80;99.90
782;DHT22;374;52.568;13.402;2023-12-20T09:40:50;7.80;99.90
782;DHT22;374;52.568;13.402;2023-12-20T09:43:19;7.90;99.90
782;DHT22;374;52.568;13.402;2023-12-20T09:45:47;7.80;99.90
782;DHT22;374;52.568;13.402;2023-12-20T09:48:18;7.80;99.90
782;DHT22;374;52.568;13.402;2023-12-20T09:50:44;7.90;99.90
782;DHT22;374;52.568;13.402;2023-12-20T09:53:13;7.90;99.90
782;DHT22;374;52.568;13.402;2023-12-20T09:55:41;7.80;99.90
782;DHT22;374;52.568;13.402;2023-12-20T09:58:06;7.80;99.90
782;DHT22;374;52.568;13.402;2023-12-20T10:00:36;7.80;99.90
782;DHT22;374;52.568;13.402;2023-12-20T10:03:03;7.80;99.90
782;DHT22;374;52.568;13.402;2023-12-20T10:05:32;7.80;99.90
782;DHT22;374;52.568;13.402;2023-12-20T10:07:59;7.80;99.90
782;DHT22;374;52.568;13.402;2023-12-20T10:10:25;7.80;99.90
782;DHT22;374;52.568;13.402;2023-12-20T10:13:10;7.80;99.90
782;DHT22;374;52.568;13.402;2023-12-20T10:15:37;7.80;99.90
782;DHT22;374;52.568;13.402;2023-12-20T10:18:03;7.90;99.90
782;DHT22;374;52.568;13.402;2023-12-20T10:20:30;7.80;99.90
782;DHT22;374;52.568;13.402;2023-12-20T10:23:00;7.90;99.90
782;DHT22;374;52.568;13.402;2023-12-20T10:25:26;7.80;99.90
782;DHT22;374;52.568;13.402;2023-12-20T10:28:09;7.80;99.90
782;DHT22;374;52.568;13.402;2023-12-20T10:30:35;7.80;99.90
782;DHT22;374;52.568;13.402;2023-12-20T10:33:01;7.80;99.90
782;DHT22;374;52.568;13.402;2023-12-20T10:35:26;7.80;99.90
782;DHT22;374;52.568;13.402;2023-12-20T10:37:55;7.80;99.90
782;DHT22;374;52.568;13.402;2023-12-20T10:40:22;7.80;99.90
782;DHT22;374;52.568;13.402;2023-12-20T10:42:48;7.80;99.90
782;DHT22;374;52.568;13.402;2023-12-20T10:45:16;7.80;99.90
782;DHT22;374;52.568;13.402;2023-12-20T10:47:44;7.80;99.90
782;DHT22;374;52.568;13.402;2023-12-20T10:50:11;7.80;99.90
782;DHT22;374;52.568;13.402;2023-12-20T10:52:37;7.80;99.90
782;DHT22;374;52.568;13.402;2023-12-20T10:55:04;7.80;99.90
782;DHT22;374;52.568;13.402;2023-12-20T10:57:30;7.80;99.90
782;DHT22;374;52.568;13.402;2023-12-20T10:59:58;7.80;99.90
782;DHT22;374;52.568;13.402;2023-12-20T11:02:25;7.80;99.90
782;DHT22;374;52.568;13.402;2023-12-20T11:05:06;7.80;99.90
782;DHT22;374;52.568;13.402;2023-12-20T11:07:36;7.80;99.90
782;DHT22;374;52.568;13.402;2023-12-20T11:10:17;7.80;99.90
782;DHT22;374;52.568;13.402;2023-12-20T11:12:51;7.80;99.90
782;DHT22;374;52.568;13.402;2023-12-20T11:15:18;7.80;99.90
782;DHT22;374;52.568;13.402;2023-12-20T11:17:47;7.80;99.90
782;DHT22;374;52.568;13.402;2023-12-20T11:20:21;7.80;99.90
782;DHT22;374;52.568;13.402;2023-12-20T11:22:54;7.80;99.90
782;DHT22;374;52.568;13.402;2023-12-20T11:25:20;7.80;99.90
782;DHT22;374;52.568;13.402;2023-12-20T11:28:11;7.80;99.90
782;DHT22;374;52.568;13.402;2023-12-20T11:30:43;7.80;99.90
782;DHT22;374;52.568;13.402;2023-12-20T11:33:10;7.80;99.90
782;DHT22;374;52.568;13.402;2023-12-20T11:35:36;7.80;99.90
782;DHT22;374;52.568;13.402;2023-12-20T11:38:02;7.80;99.90
782;DHT22;374;52.568;13.402;2023-12-20T11:40:27;7.80;99.90
782;DHT22;374;52.568;13.402;2023-12-20T11:42:53;7.80;99.90
782;DHT22;374;52.568;13.402;2023-12-20T11:45:24;7.80;99.90
782;DHT22;374;52.568;13.402;2023-12-20T11:47:51;7.80;99.90
782;DHT22;374;52.568;13.402;2023-12-20T11:50:17;7.80;99.90
782;DHT22;374;52.568;13.402;2023-12-20T11:52:43;7.80;99.90
782;DHT22;374;52.568;13.402;2023-12-20T11:55:09;7.80;99.90
782;DHT22;374;52.568;13.402;2023-12-20T11:57:36;7.80;99.90
782;DHT22;374;52.568;13.402;2023-12-20T12:00:05;7.80;99.90
782;DHT22;374;52.568;13.402;2023-12-20T12:02:31;7.80;99.90
782;DHT22;374;52.568;13.402;2023-12-20T12:04:57;7.80;99.90
782;DHT22;374;52.568;13.402;2023-12-20T12:07:24;7.80;99.90
782;DHT22;374;52.568;13.402;2023-12-20T12:09:49;7.80;99.90
782;DHT22;374;52.568;13.402;2023-12-20T12:12:16;7.80;99.90
782;DHT22;374;52.568;13.402;2023-12-20T12:14:42;7.80;99.90
782;DHT22;374;52.568;13.402;2023-12-20T12:17:14;7.80;99.90
782;DHT22;374;52.568;13.402;2023-12-20T12:19:40;7.80;99.90
782;DHT22;374;52.568;13.402;2023-12-20T12:22:11;7.80;99.90
782;DHT22;374;52.568;13.402;2023-12-20T12:24:44;7.80;99.90
782;DHT22;374;52.568;13.402;2023-12-20T12:27:10;7.80;99.90
782;DHT22;374;52.568;13.402;2023-12-20T12:29:36;7.80;99.90
782;DHT22;374;52.568;13.402;2023-12-20T12:32:09;7.80;99.90
782;DHT22;374;52.568;13.402;2023-12-20T12:34:35;7.80;99.90
782;DHT22;374;52.568;13.402;2023-12-20T12:37:02;7.80;99.90
782;DHT22;374;52.568;13.402;2023-12-20T12:39:29;7.80;99.90
782;DHT22;374;52.568;13.402;2023-12-20T12:41:55;7.80;99.90
782;DHT22;374;52.568;13.402;2023-12-20T12:44:21;7.80;99.90
782;DHT22;374;52.568;13.402;2023-12-20T12:46:49;7.70;99.90
782;DHT22;374;52.568;13.402;2023-12-20T12:49:19;7.80;99.90
782;DHT22;374;52.568;13.402;2023-12-20T12:51:45;7.80;99.90
782;DHT22;374;52.568;13.402;2023-12-20T12:54:10;7.70;99.90
782;DHT22;374;52.568;13.402;2023-12-20T12:56:38;7.70;99.90
782;DHT22;374;52.568;13.402;2023-12-20T12:59:04;7.80;99.90
782;DHT22;374;52.568;13.402;2023-12-20T13:01:31;7.80;99.90
782;DHT22;374;52.568;13.402;2023-12-20T13:03:56;7.80;99.90
782;DHT22;374;52.568;13.402;2023-12-20T13:06:22;7.70;99.90
782;DHT22;374;52.568;13.402;2023-12-20T13:08:47;7.80;99.90
782;DHT22;374;52.568;13.402;2023-12-20T13:11:13;7.80;99.90
782;DHT22;374;52.568;13.402;2023-12-20T13:13:38;7.80;99.90
782;DHT22;374;52.568;13.402;2023-12-20T13:16:04;7.80;99.90
782;DHT22;374;52.568;13.402;2023-12-20T13:18:29;7.80;99.90
782;DHT22;374;52.568;13.402;2023-12-20T13:20:55;7.70;99.90
782;DHT22;374;52.568;13.402;2023-12-20T13:23:20;7.80;99.90
782;DHT22;374;52.568;13.402;2023-12-20T13:25:46;7.80;99.90
782;DHT22;374;52.568;13.402;2023-12-20T13:28:12;7.70;99.90
782;DHT22;374;52.568;13.402;2023-12-20T13:30:38;7.80;99.90
782;DHT22;374;52.568;13.402;2023-12-20T13:33:04;7.80;99.90
782;DHT22;374;52.568;13.402;2023-12-20T13:35:30;7.70;99.90
782;DHT22;374;52.568;13.402;2023-12-20T13:37:56;7.70;99.90
782;DHT22;374;52.568;13.402;2023-12-20T13:40:21;7.80;99.90
782;DHT22;374;52.568;13.402;2023-12-20T13:42:47;7.70;99.90
782;DHT22;374;52.568;13.402;2023-12-20T13:45:13;7.70;99.90
782;DHT22;374;52.568;13.402;2023-12-20T13:47:39;7.70;99.90
782;DHT22;374;52.568;13.402;2023-12-20T13:50:05;7.70;99.90
782;DHT22;374;52.568;13.402;2023-12-20T13:52:30;7.70;99.90
782;DHT22;374;52.568;13.402;2023-12-20T13:54:56;7.70;99.90
782;DHT22;374;52.568;13.402;2023-12-20T13:57:21;7.70;99.90
782;DHT22;374;52.568;13.402;2023-12-20T13:59:47;7.70;99.90
782;DHT22;374;52.568;13.402;2023-12-20T14:02:13;7.70;99.90
782;DHT22;374;52.568;13.402;2023-12-20T14:04:47;7.70;99.90
782;DHT22;374;52.568;13.402;2023-12-20T14:07:13;7.60;99.90
782;DHT22;374;52.568;13.402;2023-12-20T14:09:39;7.90;99.90
782;DHT22;374;52.568;13.402;2023-12-20T14:12:10;7.60;99.90
782;DHT22;374;52.568;13.402;2023-12-20T14:14:36;7.60;99.90
782;DHT22;374;52.568;13.402;2023-12-20T14:17:01;7.60;99.90
782;DHT22;374;52.568;13.402;2023-12-20T14:19:27;7.60;99.90
782;DHT22;374;52.568;13.402;2023-12-20T14:21:52;7.60;99.90
782;DHT22;374;52.568;13.402;2023-12-20T14:24:18;7.60;99.90
782;DHT22;374;52.568;13.402;2023-12-20T14:26:43;7.60;99.90
782;DHT22;374;52.568;13.402;2023-12-20T14:29:09;7.60;99.90
782;DHT22;374;52.568;13.402;2023-12-20T14:31:34;7.60;99.90
782;DHT22;374;52.568;13.402;2023-12-20T14:34:00;7.70;99.90
782;DHT22;374;52.568;13.402;2023-12-20T14:36:29;7.60;99.90
782;DHT22;374;52.568;13.402;2023-12-20T14:38:56;7.70;99.90
782;DHT22;374;52.568;13.402;2023-12-20T14:41:21;7.60;99.90
782;DHT22;374;52.568;13.402;2023-12-20T14:43:50;7.60;99.90
782;DHT22;374;52.568;13.402;2023-12-20T14:46:17;7.60;99.90
782;DHT22;374;52.568;13.402;2023-12-20T14:48:42;7.60;99.90
782;DHT22;374;52.568;13.402;2023-12-20T14:51:08;7.60;99.90
782;DHT22;374;52.568;13.402;2023-12-20T14:53:33;7.50;99.90
782;DHT22;374;52.568;13.402;2023-12-20T14:56:01;7.60;99.90
782;DHT22;374;52.568;13.402;2023-12-20T14:58:27;7.50;99.90
782;DHT22;374;52.568;13.402;2023-12-20T15:00:54;7.50;99.90
782;DHT22;374;52.568;13.402;2023-12-20T15:03:21;7.60;99.90
782;DHT22;374;52.568;13.402;2023-12-20T15:05:47;7.50;99.90
782;DHT22;374;52.568;13.402;2023-12-20T15:08:13;7.50;99.90
782;DHT22;374;52.568;13.402;2023-12-20T15:10:39;7.60;99.90
782;DHT22;374;52.568;13.402;2023-12-20T15:13:04;7.50;99.90
782;DHT22;374;52.568;13.402;2023-12-20T15:15:30;7.50;99.90
782;DHT22;374;52.568;13.402;2023-12-20T15:17:57;7.50;99.90
782;DHT22;374;52.568;13.402;2023-12-20T15:20:23;7.50;99.90
782;DHT22;374;52.568;13.402;2023-12-20T15:22:48;7.50;99.90
782;DHT22;374;52.568;13.402;2023-12-20T15:25:14;7.50;99.90
782;DHT22;374;52.568;13.402;2023-12-20T15:27:46;7.50;99.90
782;DHT22;374;52.568;13.402;2023-12-20T15:30:14;7.50;99.90
782;DHT22;374;52.568;13.402;2023-12-20T15:32:40;7.50;99.90
782;DHT22;374;52.568;13.402;2023-12-20T15:35:05;7.50;99.90
782;DHT22;374;52.568;13.402;2023-12-20T15:37:32;7.50;99.90
782;DHT22;374;52.568;13.402;2023-12-20T15:39:57;7.50;99.90
782;DHT22;374;52.568;13.402;2023-12-20T15:42:23;7.50;99.90
782;DHT22;374;52.568;13.402;2023-12-20T15:44:48;7.50;99.90
782;DHT22;374;52.568;13.402;2023-12-20T15:47:13;7.40;99.90
782;DHT22;374;52.568;13.402;2023-12-20T15:49:40;7.40;99.90
782;DHT22;374;52.568;13.402;2023-12-20T15:52:05;7.40;99.90
782;DHT22;374;52.568;13.402;2023-12-20T15:54:31;7.50;99.90
782;DHT22;374;52.568;13.402;2023-12-20T15:56:56;7.50;99.90
782;DHT22;374;52.568;13.402;2023-12-20T15:59:22;7.40;99.90
782;DHT22;374;52.568;13.402;2023-12-20T16:01:48;7.40;99.90
782;DHT22;374;52.568;13.402;2023-12-20T16:04:13;7.40;99.90
782;DHT22;374;52.568;13.402;2023-12-20T16:06:39;7.40;99.90
782;DHT22;374;52.568;13.402;2023-12-20T16:09:05;7.40;99.90
782;DHT22;374;52.568;13.402;2023-12-20T16:11:30;7.40;99.90
782;DHT22;374;52.568;13.402;2023-12-20T16:13:56;7.40;99.90
782;DHT22;374;52.568;13.402;2023-12-20T16:16:22;7.40;99.90
782;DHT22;374;52.568;13.402;2023-12-20T16:18:47;7.40;99.90
782;DHT22;374;52.568;13.402;2023-12-20T16:21:13;7.40;99.90
782;DHT22;374;52.568;13.402;2023-12-20T16:23:39;7.40;99.90
782;DHT22;374;52.568;13.402;2023-12-20T16:26:04;7.40;99.90
782;DHT22;374;52.568;13.402;2023-12-20T16:28:30;7.30;99.90